Time;durP1;ratioP1;P1;durP2;ratioP2;P2;SDS_P1;SDS_P2;PMS_P1;PMS_P2;Temp;Humidity;BMP_temperature;BMP_pressure;BME280_temperature;BME280_humidity;BME280_pressure;Samples;Min_cycle;Max_cycle;Signal;HPM_P1;HPM_P2
2023/12/31 00:01:18;;;;;;;2.60;1.17;;;7.30;99.90;;;;;;5073506;28;20198;-83
2023/12/31 00:03:43;;;;;;;2.23;0.90;;;7.20;99.90;;;;;;5073624;28;20183;-83
2023/12/31 00:06:09;;;;;;;1.50;1.10;;;7.20;99.90;;;;;;5073810;28;20253;-83
2023/12/31 00:08:34;;;;;;;1.60;1.10;;;7.20;99.90;;;;;;5055891;28;20190;-83
2023/12/31 00:11:00;;;;;;;2.60;1.30;;;7.20;99.90;;;;;;5073370;28;20769;-83
2023/12/31 00:13:26;;;;;;;2.97;1.23;;;7.20;99.90;;;;;;5073211;28;20260;-84
2023/12/31 00:15:52;;;;;;;1.63;1.23;;;7.20;99.90;;;;;;5073352;28;20176;-83
2023/12/31 00:18:17;;;;;;;1.77;1.30;;;7.20;99.90;;;;;;5055229;28;20188;-83
2023/12/31 00:20:43;;;;;;;2.40;1.33;;;7.20;99.90;;;;;;5073793;28;20260;-83
2023/12/31 00:23:11;;;;;;;1.87;1.30;;;7.30;99.90;;;;;;5055703;28;20757;-83
2023/12/31 00:25:37;;;;;;;2.17;1.40;;;7.40;99.90;;;;;;5055448;28;20179;-83
2023/12/31 00:28:03;;;;;;;1.30;1.20;;;7.40;99.90;;;;;;5055407;28;20209;-83
2023/12/31 00:30:29;;;;;;;2.30;1.10;;;7.50;99.90;;;;;;5054884;28;20199;-83
2023/12/31 00:32:54;;;;;;;3.20;1.20;;;7.60;99.90;;;;;;5072681;28;20297;-83
2023/12/31 00:35:20;;;;;;;2.10;1.10;;;7.60;99.90;;;;;;5054865;28;20179;-83
2023/12/31 00:37:46;;;;;;;2.73;1.10;;;7.70;99.90;;;;;;5072965;28;20207;-83
2023/12/31 00:40:12;;;;;;;2.83;1.17;;;7.70;99.90;;;;;;5054948;28;20243;-83
2023/12/31 00:42:38;;;;;;;1.40;1.10;;;7.70;99.90;;;;;;5055179;28;20169;-83
2023/12/31 00:45:04;;;;;;;1.63;1.10;;;7.70;99.90;;;;;;5054746;28;20241;-83
2023/12/31 00:47:30;;;;;;;2.00;1.20;;;7.70;99.90;;;;;;5055012;28;20270;-83
2023/12/31 00:49:55;;;;;;;2.10;1.00;;;7.60;99.90;;;;;;5072749;28;20164;-83
2023/12/31 00:52:21;;;;;;;1.43;1.23;;;7.60;99.90;;;;;;5072936;28;20173;-83
2023/12/31 00:54:50;;;;;;;2.53;1.10;;;7.60;99.90;;;;;;5054833;28;20207;-83
2023/12/31 00:57:16;;;;;;;1.50;1.10;;;7.60;99.90;;;;;;5072597;28;20255;-83
2023/12/31 00:59:41;;;;;;;2.33;1.27;;;7.60;99.90;;;;;;5072074;28;20259;-83
2023/12/31 01:02:07;;;;;;;1.87;1.20;;;7.70;96.60;;;;;;5054775;28;20180;-82
2023/12/31 01:04:32;;;;;;;2.07;1.20;;;7.70;99.90;;;;;;5054952;28;20223;-81
2023/12/31 01:06:58;;;;;;;1.83;1.13;;;7.60;99.90;;;;;;5054495;28;20625;-83
2023/12/31 01:09:24;;;;;;;2.00;1.40;;;7.60;99.90;;;;;;5072709;28;20175;-83
2023/12/31 01:11:49;;;;;;;2.57;1.50;;;7.60;99.90;;;;;;5054509;28;20201;-83
2023/12/31 01:14:15;;;;;;;1.50;1.37;;;7.50;99.90;;;;;;5054599;28;20197;-83
2023/12/31 01:16:40;;;;;;;1.70;1.30;;;7.50;99.90;;;;;;5054758;28;20255;-83
2023/12/31 01:19:06;;;;;;;2.07;1.20;;;7.50;99.90;;;;;;5054521;28;20175;-83
2023/12/31 01:21:31;;;;;;;2.03;1.20;;;7.60;99.90;;;;;;5072210;28;20205;-83
2023/12/31 01:23:57;;;;;;;3.23;1.20;;;7.60;87.50;;;;;;5054499;28;20531;-83
2023/12/31 01:26:24;;;;;;;2.40;1.30;;;7.60;90.30;;;;;;5072635;28;20221;-83
2023/12/31 01:28:49;;;;;;;1.30;1.20;;;7.60;31.60;;;;;;5072383;28;20177;-83
2023/12/31 01:31:21;;;;;;;1.87;1.27;;;7.60;59.40;;;;;;5072184;28;20206;-83
2023/12/31 01:33:47;;;;;;;2.03;1.20;;;7.70;1.00;;;;;;5054589;28;20738;-83
2023/12/31 01:36:16;;;;;;;1.57;1.30;;;7.80;1.00;;;;;;5054433;28;20170;-83
2023/12/31 01:38:43;;;;;;;2.33;1.10;;;7.70;1.00;;;;;;5072085;28;20171;-85
2023/12/31 01:41:09;;;;;;;1.43;1.10;;;7.70;1.00;;;;;;5072024;28;20566;-84
2023/12/31 01:43:38;;;;;;;2.03;1.03;;;7.70;1.00;;;;;;5054090;28;20261;-83
2023/12/31 01:46:05;;;;;;;1.10;1.00;;;7.70;1.00;;;;;;5072354;28;20175;-83
2023/12/31 01:48:31;;;;;;;2.60;1.30;;;7.70;1.00;;;;;;5054155;28;20246;-83
2023/12/31 01:50:57;;;;;;;1.40;1.13;;;7.70;1.00;;;;;;5054189;28;20219;-83
2023/12/31 01:53:23;;;;;;;2.30;1.13;;;7.70;1.00;;;;;;5054020;28;20196;-83
2023/12/31 01:55:50;;;;;;;1.70;1.00;;;7.70;1.00;;;;;;5054055;28;20176;-83
2023/12/31 01:58:16;;;;;;;2.00;1.00;;;7.70;1.00;;;;;;5054001;28;20232;-83
2023/12/31 02:00:42;;;;;;;5.93;1.47;;;7.70;1.00;;;;;;5072013;28;20683;-84
2023/12/31 02:03:08;;;;;;;1.70;1.10;;;7.60;1.00;;;;;;5054149;28;20172;-83
2023/12/31 02:05:35;;;;;;;2.10;1.20;;;7.60;1.00;;;;;;5072306;28;20172;-83
2023/12/31 02:08:01;;;;;;;1.43;1.10;;;7.60;1.00;;;;;;5072072;28;20180;-83
2023/12/31 02:10:27;;;;;;;1.10;1.00;;;7.50;1.00;;;;;;5074716;28;20242;-83
2023/12/31 02:12:53;;;;;;;1.50;1.10;;;7.50;1.00;;;;;;5058029;28;20180;-83
2023/12/31 02:15:30;;;;;;;1.30;1.10;;;7.50;1.00;;;;;;5057631;28;20176;-85
2023/12/31 02:17:55;;;;;;;1.90;1.20;;;7.50;1.00;;;;;;5058007;28;20266;-83
2023/12/31 02:20:21;;;;;;;1.13;1.00;;;7.40;1.00;;;;;;5057604;28;20254;-85
2023/12/31 02:22:47;;;;;;;1.70;1.30;;;7.40;1.00;;;;;;5075525;28;20172;-83
2023/12/31 02:25:17;;;;;;;1.33;1.20;;;7.40;1.00;;;;;;5057563;28;20174;-83
2023/12/31 02:27:43;;;;;;;2.27;1.40;;;7.40;1.00;;;;;;5075450;28;20256;-83
2023/12/31 02:30:09;;;;;;;2.10;1.40;;;7.50;1.00;;;;;;5075571;28;20234;-83
2023/12/31 02:32:35;;;;;;;2.20;1.20;;;7.30;1.00;;;;;;5057479;28;20177;-81
2023/12/31 02:35:01;;;;;;;1.57;1.27;;;7.10;1.00;;;;;;5075285;28;20686;-83
2023/12/31 02:37:26;;;;;;;1.23;1.13;;;7.00;1.00;;;;;;5057857;28;20225;-83
2023/12/31 02:39:52;;;;;;;1.93;1.40;;;6.90;1.00;;;;;;5075142;28;20254;-83
2023/12/31 02:42:18;;;;;;;2.73;1.60;;;6.90;17.00;;;;;;5057223;28;20172;-83
2023/12/31 02:44:43;;;;;;;2.27;1.50;;;6.90;38.10;;;;;;5075458;28;20257;-83
2023/12/31 02:47:11;;;;;;;2.53;1.40;;;6.90;33.50;;;;;;5057196;28;20262;-83
2023/12/31 02:49:36;;;;;;;1.30;1.20;;;7.00;1.00;;;;;;5074792;28;20181;-84
2023/12/31 02:52:02;;;;;;;2.30;1.37;;;7.00;1.00;;;;;;5057218;28;20240;-84
2023/12/31 02:54:28;;;;;;;1.23;1.13;;;7.00;1.00;;;;;;5056847;28;20196;-85
2023/12/31 02:56:53;;;;;;;2.50;1.30;;;6.90;3.80;;;;;;5057108;28;20273;-83
2023/12/31 02:59:19;;;;;;;2.40;1.50;;;6.90;22.30;;;;;;5070327;28;20260;-83
2023/12/31 03:01:44;;;;;;;1.70;1.27;;;6.80;33.70;;;;;;5056891;28;20193;-83
2023/12/31 03:04:10;;;;;;;1.60;1.33;;;6.80;45.00;;;;;;5057101;28;20222;-83
2023/12/31 03:06:40;;;;;;;2.77;1.50;;;6.80;36.60;;;;;;5056888;28;20711;-83
2023/12/31 03:09:06;;;;;;;2.23;1.70;;;6.80;30.00;;;;;;5074476;28;20203;-83
2023/12/31 03:11:33;;;;;;;1.73;1.37;;;6.80;37.80;;;;;;5074487;28;20701;-83
2023/12/31 03:13:59;;;;;;;2.23;1.40;;;6.80;50.00;;;;;;5056908;28;20216;-84
2023/12/31 03:16:25;;;;;;;2.83;1.47;;;6.80;52.40;;;;;;5056903;28;20175;-83
2023/12/31 03:18:54;;;;;;;2.47;1.30;;;6.80;48.00;;;;;;5071464;28;20193;-84
2023/12/31 03:21:19;;;;;;;2.13;1.50;;;6.80;27.70;;;;;;5073432;28;20209;-83
2023/12/31 03:23:45;;;;;;;2.00;1.80;;;6.90;11.10;;;;;;5056590;28;20176;-84
2023/12/31 03:26:11;;;;;;;2.03;1.80;;;6.90;5.50;;;;;;5056902;28;20192;-85
2023/12/31 03:28:37;;;;;;;3.10;1.80;;;6.80;10.70;;;;;;5056667;28;20184;-83
2023/12/31 03:31:03;;;;;;;1.70;1.60;;;6.80;22.80;;;;;;5056226;28;20296;-83
2023/12/31 03:33:32;;;;;;;1.80;1.40;;;6.80;30.40;;;;;;5056519;28;20228;-83
2023/12/31 03:35:57;;;;;;;2.50;1.70;;;6.80;28.30;;;;;;5074017;28;20581;-83
2023/12/31 03:38:23;;;;;;;2.30;1.60;;;6.80;38.20;;;;;;5056681;28;20184;-83
2023/12/31 03:40:48;;;;;;;2.20;1.67;;;6.80;31.40;;;;;;5056421;28;20569;-83
2023/12/31 03:43:14;;;;;;;2.27;1.53;;;6.80;35.50;;;;;;5074479;28;20189;-83
2023/12/31 03:45:39;;;;;;;2.37;1.70;;;6.70;87.90;;;;;;5074118;28;20176;-83
2023/12/31 03:48:05;;;;;;;1.70;1.60;;;6.60;99.90;;;;;;5056080;28;20180;-83
2023/12/31 03:50:31;;;;;;;1.97;1.70;;;6.50;99.90;;;;;;5055698;28;20207;-83
2023/12/31 03:52:56;;;;;;;2.57;1.70;;;6.50;99.90;;;;;;5055895;28;20545;-83
2023/12/31 03:55:23;;;;;;;2.03;1.80;;;6.40;99.90;;;;;;5073990;28;20222;-83
2023/12/31 03:57:49;;;;;;;2.67;1.90;;;6.40;99.90;;;;;;5073638;28;20176;-83
2023/12/31 04:00:15;;;;;;;3.80;2.10;;;6.40;99.90;;;;;;5055842;28;20198;-83
2023/12/31 04:02:40;;;;;;;2.40;2.20;;;6.30;99.90;;;;;;5055800;28;20173;-83
2023/12/31 04:05:06;;;;;;;2.73;2.23;;;6.30;99.90;;;;;;5055541;28;20214;-84
2023/12/31 04:07:32;;;;;;;3.03;2.30;;;6.30;99.90;;;;;;5073380;28;20325;-85
2023/12/31 04:09:57;;;;;;;4.07;2.57;;;6.30;99.90;;;;;;5055779;28;20199;-83
2023/12/31 04:12:23;;;;;;;3.77;2.90;;;6.30;99.90;;;;;;5073561;28;20178;-83
2023/12/31 04:14:48;;;;;;;2.93;2.60;;;6.30;99.90;;;;;;5055664;28;20212;-84
2023/12/31 04:17:14;;;;;;;3.47;2.57;;;6.30;99.90;;;;;;5073346;28;20181;-85
2023/12/31 04:19:40;;;;;;;4.33;2.37;;;6.30;99.90;;;;;;5073119;28;20179;-83
2023/12/31 04:22:05;;;;;;;3.23;2.67;;;6.30;99.90;;;;;;5055389;28;20204;-83
2023/12/31 04:24:31;;;;;;;3.33;2.70;;;6.20;99.90;;;;;;5073557;28;20177;-83
2023/12/31 04:26:57;;;;;;;3.00;2.70;;;6.20;99.90;;;;;;5055471;28;20204;-83
2023/12/31 04:29:23;;;;;;;3.57;3.00;;;6.20;99.90;;;;;;5055156;28;20664;-84
2023/12/31 04:31:48;;;;;;;4.20;3.20;;;6.20;99.90;;;;;;5046118;28;20192;-83
2023/12/31 04:34:14;;;;;;;4.60;2.93;;;6.10;99.90;;;;;;5071467;28;20283;-83
2023/12/31 04:36:46;;;;;;;4.97;3.40;;;6.20;99.90;;;;;;5064951;28;20180;-83
2023/12/31 04:39:12;;;;;;;4.57;3.37;;;6.10;99.90;;;;;;5072547;28;20680;-83
2023/12/31 04:41:38;;;;;;;4.03;3.23;;;6.20;99.90;;;;;;5051605;28;20197;-83
2023/12/31 04:44:04;;;;;;;4.03;3.40;;;6.10;99.90;;;;;;5052188;28;20271;-83
2023/12/31 04:46:30;;;;;;;4.30;3.60;;;6.20;99.90;;;;;;5053341;28;20184;-83
2023/12/31 04:48:56;;;;;;;4.30;3.53;;;6.20;99.90;;;;;;5051246;28;20173;-83
2023/12/31 04:51:29;;;;;;;4.33;3.80;;;6.20;99.90;;;;;;5051126;28;20201;-84
2023/12/31 04:53:56;;;;;;;3.97;3.40;;;6.20;99.90;;;;;;5052906;28;20200;-83
2023/12/31 04:56:22;;;;;;;3.60;3.30;;;6.20;99.90;;;;;;5053289;28;20181;-85
2023/12/31 04:58:57;;;;;;;4.13;3.50;;;6.30;92.00;;;;;;5051440;28;20214;-83
2023/12/31 05:01:22;;;;;;;3.90;3.30;;;6.30;66.50;;;;;;5052471;28;20189;-83
2023/12/31 05:03:49;;;;;;;4.43;3.50;;;6.20;50.50;;;;;;5053370;28;20181;-83
2023/12/31 05:06:15;;;;;;;3.60;3.13;;;6.30;5.90;;;;;;5052674;28;20170;-84
2023/12/31 05:08:45;;;;;;;4.67;3.30;;;6.30;22.30;;;;;;5052673;28;20176;-83
2023/12/31 05:11:12;;;;;;;3.83;3.50;;;6.30;20.80;;;;;;5052345;28;20274;-83
2023/12/31 05:13:39;;;;;;;4.43;3.27;;;6.20;37.30;;;;;;5051438;28;20271;-82
2023/12/31 05:16:14;;;;;;;3.17;2.83;;;6.10;91.10;;;;;;5051055;28;20170;-82
2023/12/31 05:18:44;;;;;;;3.77;3.00;;;6.00;99.90;;;;;;5051351;28;20192;-85
2023/12/31 05:21:12;;;;;;;4.03;2.90;;;6.00;99.90;;;;;;5051013;28;20572;-83
2023/12/31 05:23:39;;;;;;;3.97;2.80;;;6.00;99.90;;;;;;5052795;28;20174;-85
2023/12/31 05:26:05;;;;;;;3.17;2.80;;;5.90;99.90;;;;;;5051141;28;20649;-83
2023/12/31 05:28:30;;;;;;;3.17;2.70;;;5.80;99.90;;;;;;5051068;28;20172;-84
2023/12/31 05:30:56;;;;;;;3.53;2.70;;;5.80;99.90;;;;;;5050752;28;20211;-83
2023/12/31 05:33:21;;;;;;;3.70;2.97;;;5.70;99.90;;;;;;5052444;28;20305;-83
2023/12/31 05:35:47;;;;;;;3.70;2.80;;;5.70;99.90;;;;;;5051084;28;20227;-83
2023/12/31 05:38:13;;;;;;;3.47;2.87;;;5.70;99.90;;;;;;5052355;28;20266;-84
2023/12/31 05:40:38;;;;;;;4.30;2.70;;;5.60;99.90;;;;;;5052140;28;20200;-83
2023/12/31 05:43:04;;;;;;;2.83;2.53;;;5.60;99.90;;;;;;5050996;28;20173;-83
2023/12/31 05:45:30;;;;;;;3.23;2.53;;;5.60;99.90;;;;;;5055562;28;20181;-81
2023/12/31 05:47:56;;;;;;;3.83;2.37;;;5.70;99.90;;;;;;5056524;28;20176;-80
2023/12/31 05:50:21;;;;;;;3.40;2.80;;;5.60;99.90;;;;;;5054616;28;20193;-83
2023/12/31 05:52:47;;;;;;;4.33;2.57;;;5.60;99.90;;;;;;5055389;28;20166;-83
2023/12/31 05:55:13;;;;;;;4.33;2.90;;;5.60;99.90;;;;;;5056640;28;20174;-83
2023/12/31 05:57:39;;;;;;;4.63;2.80;;;5.50;99.90;;;;;;5055216;28;20533;-83
2023/12/31 06:00:06;;;;;;;3.13;2.60;;;5.60;99.90;;;;;;5056118;28;20210;-83
2023/12/31 06:02:32;;;;;;;3.57;3.20;;;5.70;99.90;;;;;;5054942;28;20173;-83
2023/12/31 06:04:58;;;;;;;6.43;3.23;;;5.70;99.90;;;;;;5056375;28;20253;-83
2023/12/31 06:07:23;;;;;;;3.80;2.83;;;5.80;99.90;;;;;;5055177;28;20234;-83
2023/12/31 06:09:49;;;;;;;4.03;3.07;;;5.80;99.90;;;;;;5054601;28;20245;-83
2023/12/31 06:12:14;;;;;;;4.50;3.23;;;5.90;99.90;;;;;;5054728;28;20443;-83
2023/12/31 06:14:40;;;;;;;5.37;3.37;;;6.00;99.90;;;;;;5054592;28;20267;-83
2023/12/31 06:17:06;;;;;;;3.93;3.07;;;6.00;99.90;;;;;;5055920;28;20174;-84
2023/12/31 06:19:33;;;;;;;4.50;3.23;;;6.00;99.90;;;;;;5055899;28;20180;-84
2023/12/31 06:21:58;;;;;;;2.80;2.50;;;6.00;99.90;;;;;;5109019;23;20233;-83
2023/12/31 06:24:24;;;;;;;4.67;3.07;;;6.00;99.90;;;;;;5055214;28;20591;-84
2023/12/31 06:26:50;;;;;;;2.67;2.47;;;6.00;99.90;;;;;;5054321;28;20182;-85
2023/12/31 06:29:15;;;;;;;4.10;2.50;;;6.00;99.90;;;;;;5054003;28;20169;-84
2023/12/31 06:31:41;;;;;;;3.07;2.60;;;5.90;99.90;;;;;;5053828;28;20250;-84
2023/12/31 06:34:06;;;;;;;4.40;2.57;;;5.90;99.90;;;;;;5053926;28;20244;-84
2023/12/31 06:36:32;;;;;;;2.93;2.43;;;5.80;99.90;;;;;;5054992;28;20181;-87
2023/12/31 06:38:57;;;;;;;2.43;2.20;;;5.70;99.90;;;;;;5055012;28;20541;-84
2023/12/31 06:41:23;;;;;;;3.20;2.57;;;5.70;99.90;;;;;;5054955;28;20286;-84
2023/12/31 06:43:48;;;;;;;3.30;2.23;;;5.60;99.90;;;;;;5055170;28;20177;-84
2023/12/31 06:46:14;;;;;;;3.50;2.43;;;5.70;99.90;;;;;;5055147;28;20176;-83
2023/12/31 06:48:40;;;;;;;3.03;2.43;;;5.70;99.90;;;;;;5053679;28;20212;-83
2023/12/31 06:51:06;;;;;;;2.53;2.27;;;5.70;99.90;;;;;;5053044;28;20224;-84
2023/12/31 06:53:34;;;;;;;2.53;2.33;;;5.60;99.90;;;;;;5054501;28;20238;-83
2023/12/31 06:56:07;;;;;;;2.63;2.30;;;5.70;99.90;;;;;;5054078;28;20182;-84
2023/12/31 06:58:35;;;;;;;3.23;2.60;;;5.70;99.90;;;;;;5054744;28;20170;-83
2023/12/31 07:01:01;;;;;;;2.57;2.27;;;5.70;99.90;;;;;;5053718;28;20251;-86
2023/12/31 07:03:26;;;;;;;2.80;2.20;;;5.70;99.90;;;;;;5053880;28;20189;-81
2023/12/31 07:05:52;;;;;;;2.53;2.00;;;5.60;99.90;;;;;;5056743;28;20182;-81
2023/12/31 07:08:17;;;;;;;2.10;1.87;;;5.90;99.90;;;;;;5054550;28;20668;-83
2023/12/31 07:10:43;;;;;;;2.73;2.20;;;6.60;99.90;;;;;;5055091;28;20200;-84
2023/12/31 07:13:08;;;;;;;4.70;3.03;;;7.10;99.90;;;;;;5055224;28;20210;-82
2023/12/31 07:15:35;;;;;;;4.07;2.37;;;7.40;99.90;;;;;;5054936;28;20652;-83
2023/12/31 07:18:01;;;;;;;2.43;2.03;;;7.70;99.90;;;;;;5053228;28;20175;-84
2023/12/31 07:20:27;;;;;;;2.53;1.90;;;7.70;1.00;;;;;;5052890;28;20222;-84
2023/12/31 07:22:53;;;;;;;2.30;2.00;;;7.40;1.00;;;;;;5052906;28;20169;-84
2023/12/31 07:25:20;;;;;;;2.50;1.97;;;7.10;1.00;;;;;;5054059;28;20259;-84
2023/12/31 07:27:46;;;;;;;2.60;1.90;;;6.70;1.00;;;;;;5052247;28;20187;-86
2023/12/31 07:30:12;;;;;;;3.10;2.30;;;6.40;96.40;;;;;;5053998;28;20176;-83
2023/12/31 07:32:38;;;;;;;3.17;2.10;;;6.20;99.90;;;;;;5054316;28;20175;-84
2023/12/31 07:35:04;;;;;;;2.37;2.10;;;6.00;99.90;;;;;;5055764;28;20202;-81
2023/12/31 07:37:30;;;;;;;2.60;1.87;;;5.80;99.90;;;;;;5054182;28;20611;-82
2023/12/31 07:39:57;;;;;;;3.10;2.53;;;5.80;99.90;;;;;;5054579;28;20201;-84
2023/12/31 07:42:23;;;;;;;3.43;2.47;;;5.60;99.90;;;;;;5054378;28;20189;-81
2023/12/31 07:44:49;;;;;;;2.90;2.60;;;5.60;99.90;;;;;;5055175;28;20200;-80
2023/12/31 07:47:14;;;;;;;2.90;2.60;;;5.60;99.90;;;;;;5056435;28;20177;-82
2023/12/31 07:49:40;;;;;;;2.60;2.40;;;5.70;99.90;;;;;;5057159;28;20169;-80
2023/12/31 07:52:05;;;;;;;3.27;2.43;;;5.70;99.90;;;;;;5056692;28;20217;-81
2023/12/31 07:54:31;;;;;;;3.60;2.47;;;5.80;99.90;;;;;;5056587;28;20231;-83
2023/12/31 07:56:57;;;;;;;2.80;2.30;;;5.80;99.90;;;;;;5058581;28;20174;-82
2023/12/31 07:59:23;;;;;;;2.63;2.17;;;5.90;99.90;;;;;;5058690;28;20646;-82
2023/12/31 08:01:49;;;;;;;3.80;1.53;;;6.00;99.90;;;;;;5056580;28;20186;-84
2023/12/31 08:04:14;;;;;;;1.70;1.57;;;6.40;1.00;;;;;;5056200;28;20181;-82
2023/12/31 08:06:40;;;;;;;1.80;1.40;;;7.00;99.90;;;;;;5055432;28;20181;-83
2023/12/31 08:09:05;;;;;;;2.27;1.60;;;7.30;99.90;;;;;;5057274;28;20176;-83
2023/12/31 08:11:31;;;;;;;1.77;1.27;;;7.60;1.00;;;;;;5055578;28;20556;-83
2023/12/31 08:13:57;;;;;;;1.23;1.13;;;7.90;1.00;;;;;;5057278;28;20206;-85
2023/12/31 08:16:22;;;;;;;1.50;1.40;;;8.00;99.90;;;;;;5058025;28;20305;-83
2023/12/31 08:18:48;;;;;;;1.60;1.20;;;8.10;13.60;;;;;;5051978;28;20167;-83
2023/12/31 08:21:13;;;;;;;1.50;1.20;;;8.00;99.90;;;;;;5051624;28;20298;-83
2023/12/31 08:23:39;;;;;;;1.77;1.50;;;8.10;99.90;;;;;;5053315;28;20211;-86
2023/12/31 08:26:05;;;;;;;1.67;1.40;;;8.10;1.00;;;;;;5053311;28;20211;-83
2023/12/31 08:28:30;;;;;;;1.50;1.40;;;8.10;99.90;;;;;;5054328;28;20180;-81
2023/12/31 08:30:56;;;;;;;1.40;1.30;;;8.10;99.90;;;;;;5054058;28;20207;-81
2023/12/31 08:33:22;;;;;;;2.23;1.40;;;8.10;99.90;;;;;;5052971;28;20203;-87
2023/12/31 08:35:48;;;;;;;1.40;1.30;;;8.10;99.90;;;;;;5053065;28;20591;-83
2023/12/31 08:38:14;;;;;;;2.80;1.47;;;8.10;1.00;;;;;;5051496;28;20263;-84
2023/12/31 08:40:39;;;;;;;1.60;1.33;;;8.10;1.00;;;;;;5050662;28;20231;-85
2023/12/31 08:43:05;;;;;;;1.77;1.50;;;8.20;1.00;;;;;;5052357;28;20197;-83
2023/12/31 08:45:32;;;;;;;1.53;1.20;;;8.20;1.00;;;;;;5051967;28;20275;-83
2023/12/31 08:47:58;;;;;;;1.93;1.37;;;8.20;1.00;;;;;;5052246;28;20181;-83
2023/12/31 08:50:24;;;;;;;2.83;1.40;;;8.20;1.00;;;;;;5050145;28;20200;-83
2023/12/31 08:52:50;;;;;;;1.87;1.40;;;8.20;1.00;;;;;;5047444;28;20212;-83
2023/12/31 08:55:16;;;;;;;2.03;1.30;;;8.30;99.90;;;;;;5052922;28;20201;-83
2023/12/31 08:57:46;;;;;;;2.60;1.30;;;8.40;99.90;;;;;;5052027;28;20724;-82
2023/12/31 09:00:12;;;;;;;1.67;1.53;;;8.40;99.90;;;;;;5052621;28;20185;-83
2023/12/31 09:02:38;;;;;;;1.97;1.50;;;8.50;1.00;;;;;;5053080;28;20192;-82
2023/12/31 09:05:04;;;;;;;1.40;1.30;;;8.50;1.00;;;;;;5051701;28;20185;-83
2023/12/31 09:07:31;;;;;;;2.07;1.50;;;8.50;1.00;;;;;;5051531;28;20228;-83
2023/12/31 09:09:58;;;;;;;2.00;1.47;;;8.60;1.00;;;;;;5052946;28;20302;-83
2023/12/31 09:12:24;;;;;;;1.43;1.30;;;8.60;1.00;;;;;;5051416;28;20258;-83
2023/12/31 09:14:50;;;;;;;1.60;1.40;;;8.50;1.00;;;;;;5052731;28;20238;-83
2023/12/31 09:17:16;;;;;;;1.80;1.40;;;8.50;1.00;;;;;;5052808;28;20178;-83
2023/12/31 09:19:41;;;;;;;1.60;1.50;;;8.40;99.90;;;;;;5051342;28;20179;-82
2023/12/31 09:22:07;;;;;;;1.77;1.40;;;8.40;1.00;;;;;;5052256;28;20217;-83
2023/12/31 09:24:33;;;;;;;2.03;1.33;;;8.50;1.00;;;;;;5052666;28;20177;-83
2023/12/31 09:26:58;;;;;;;2.00;1.60;;;8.60;1.00;;;;;;5052883;28;20234;-83
2023/12/31 09:29:24;;;;;;;1.97;1.67;;;8.50;1.00;;;;;;5052653;28;20188;-83
2023/12/31 09:31:49;;;;;;;1.67;1.53;;;8.40;99.90;;;;;;5052762;28;20224;-83
2023/12/31 09:34:15;;;;;;;1.77;1.43;;;8.40;99.90;;;;;;5052617;28;20236;-85
2023/12/31 09:36:41;;;;;;;1.40;1.30;;;8.40;99.90;;;;;;5052940;28;20182;-82
2023/12/31 09:39:08;;;;;;;2.20;1.20;;;8.40;1.00;;;;;;5053258;28;20210;-82
2023/12/31 09:41:35;;;;;;;1.43;1.33;;;8.40;99.90;;;;;;5050968;28;20211;-82
2023/12/31 09:44:03;;;;;;;1.77;1.40;;;8.40;99.90;;;;;;5052846;28;20187;-82
2023/12/31 09:46:31;;;;;;;2.13;1.50;;;8.40;1.00;;;;;;5050753;28;20180;-82
2023/12/31 09:48:58;;;;;;;1.50;1.40;;;8.50;99.90;;;;;;5053292;28;20275;-83
2023/12/31 09:51:24;;;;;;;1.90;1.70;;;8.50;99.90;;;;;;5051973;28;20197;-85
2023/12/31 09:53:54;;;;;;;2.33;1.70;;;8.50;99.90;;;;;;5054070;28;20549;-81
2023/12/31 09:56:22;;;;;;;1.40;1.30;;;8.50;99.90;;;;;;5054994;28;20178;-82
2023/12/31 09:58:52;;;;;;;2.03;1.43;;;8.50;99.90;;;;;;5053277;28;20227;-84
2023/12/31 10:01:17;;;;;;;2.10;1.40;;;8.50;99.90;;;;;;5054193;28;20200;-82
2023/12/31 10:03:46;;;;;;;2.07;1.50;;;8.60;99.90;;;;;;5054304;28;20189;-80
2023/12/31 10:06:12;;;;;;;1.70;1.33;;;8.60;99.90;;;;;;5054110;28;20184;-82
2023/12/31 10:08:40;;;;;;;2.17;1.47;;;8.70;96.00;;;;;;5054326;28;20185;-84
2023/12/31 10:11:07;;;;;;;2.27;1.43;;;8.80;99.90;;;;;;5054541;28;20223;-82
2023/12/31 10:13:32;;;;;;;1.87;1.40;;;8.80;99.90;;;;;;5053134;28;20197;-83
2023/12/31 10:15:58;;;;;;;2.33;1.50;;;8.80;14.90;;;;;;5053811;28;20184;-82
2023/12/31 10:18:26;;;;;;;2.30;1.50;;;8.90;1.00;;;;;;5053847;28;20179;-82
2023/12/31 10:20:52;;;;;;;2.40;1.40;;;8.90;1.00;;;;;;5052292;28;20212;-81
2023/12/31 10:23:18;;;;;;;1.80;1.40;;;8.90;1.00;;;;;;5053728;28;20181;-81
2023/12/31 10:25:44;;;;;;;2.60;1.57;;;8.90;1.00;;;;;;5054343;28;20223;-83
2023/12/31 10:28:10;;;;;;;1.87;1.67;;;8.90;1.00;;;;;;5051017;28;20177;-80
2023/12/31 10:30:39;;;;;;;1.73;1.40;;;8.90;99.90;;;;;;5053013;28;20211;-80
2023/12/31 10:33:09;;;;;;;2.10;1.60;;;9.10;99.90;;;;;;5059002;28;20642;-83
2023/12/31 10:35:35;;;;;;;1.73;1.40;;;9.10;99.90;;;;;;5058330;28;20170;-81
2023/12/31 10:38:05;;;;;;;1.90;1.50;;;9.10;99.90;;;;;;5057623;28;20227;-81
2023/12/31 10:40:35;;;;;;;1.90;1.40;;;9.10;82.90;;;;;;5057634;28;20194;-82
2023/12/31 10:43:07;;;;;;;2.13;1.50;;;9.10;99.90;;;;;;5058693;28;20219;-82
2023/12/31 10:45:33;;;;;;;1.70;1.50;;;9.10;99.90;;;;;;5057922;28;20195;-83
2023/12/31 10:48:06;;;;;;;1.97;1.60;;;9.00;99.90;;;;;;5058345;28;20176;-82
2023/12/31 10:50:36;;;;;;;1.50;1.30;;;9.10;99.90;;;;;;5058364;28;20195;-81
2023/12/31 10:53:07;;;;;;;1.70;1.50;;;9.00;99.90;;;;;;5057611;28;20181;-82
2023/12/31 10:55:34;;;;;;;1.63;1.43;;;9.00;99.90;;;;;;5055337;28;20772;-82
2023/12/31 10:58:01;;;;;;;1.60;1.50;;;9.00;99.90;;;;;;5056312;28;20208;-83
2023/12/31 11:00:27;;;;;;;1.47;1.37;;;9.00;99.90;;;;;;5054748;28;20211;-81
2023/12/31 11:02:57;;;;;;;2.40;1.60;;;9.00;1.00;;;;;;5055494;28;20265;-83
2023/12/31 11:05:24;;;;;;;1.50;1.40;;;9.00;99.90;;;;;;5054612;28;20599;-83
2023/12/31 11:07:50;;;;;;;2.33;1.50;;;9.00;1.00;;;;;;5054717;28;20186;-83
2023/12/31 11:10:17;;;;;;;1.80;1.47;;;9.00;27.50;;;;;;5053422;28;20252;-85
2023/12/31 11:12:48;;;;;;;1.50;1.30;;;9.00;1.00;;;;;;5053621;28;20185;-83
2023/12/31 11:15:17;;;;;;;3.20;2.37;;;9.00;1.00;;;;;;5055121;28;20232;-82
2023/12/31 11:18:01;;;;;;;3.57;2.23;;;8.90;99.90;;;;;;5055139;28;20177;-81
2023/12/31 11:20:41;;;;;;;2.17;1.87;;;8.90;66.90;;;;;;5054306;28;20197;-82
2023/12/31 11:23:32;;;;;;;2.67;1.90;;;8.80;99.90;;;;;;5054527;28;20556;-82
2023/12/31 11:25:59;;;;;;;1.87;1.57;;;8.80;99.90;;;;;;5056831;28;20176;-83
2023/12/31 11:28:28;;;;;;;1.60;1.50;;;8.70;1.00;;;;;;5055523;28;20187;-81
2023/12/31 11:30:58;;;;;;;1.90;1.47;;;8.60;1.00;;;;;;5055583;28;20274;-82
2023/12/31 11:33:32;;;;;;;2.40;1.70;;;8.60;1.00;;;;;;5055257;28;20211;-81
2023/12/31 11:36:02;;;;;;;1.80;1.40;;;8.50;1.00;;;;;;5054463;28;20177;-81
2023/12/31 11:38:56;;;;;;;2.27;1.70;;;8.40;99.90;;;;;;5055570;28;20679;-80
2023/12/31 11:41:33;;;;;;;1.73;1.40;;;8.40;99.90;;;;;;5053383;28;20204;-86
2023/12/31 11:43:58;;;;;;;2.40;1.77;;;8.40;99.90;;;;;;5053822;28;20180;-84
2023/12/31 11:46:40;;;;;;;3.70;1.80;;;8.40;1.00;;;;;;5053818;28;20184;-84
2023/12/31 11:49:07;;;;;;;2.97;1.70;;;8.40;99.90;;;;;;5052979;28;20187;-82
2023/12/31 11:51:54;;;;;;;1.80;1.50;;;8.30;99.90;;;;;;5054761;28;20605;-82
2023/12/31 11:54:23;;;;;;;2.50;1.67;;;8.30;99.90;;;;;;5056469;28;20572;-82
2023/12/31 11:56:52;;;;;;;1.60;1.50;;;8.30;99.90;;;;;;5055361;28;20259;-82
2023/12/31 11:59:18;;;;;;;1.90;1.70;;;8.20;1.00;;;;;;5054834;28;20188;-82
2023/12/31 12:01:44;;;;;;;2.50;1.60;;;8.10;99.90;;;;;;5053364;28;20260;-82
2023/12/31 12:04:11;;;;;;;2.73;1.60;;;8.10;99.90;;;;;;5053237;28;20246;-82
2023/12/31 12:06:38;;;;;;;2.20;1.67;;;8.10;1.00;;;;;;5055733;28;20606;-82
2023/12/31 12:09:05;;;;;;;2.73;1.70;;;8.10;1.00;;;;;;5055007;28;20184;-82
2023/12/31 12:11:31;;;;;;;3.00;1.60;;;8.00;1.00;;;;;;5052921;28;20206;-81
2023/12/31 12:13:56;;;;;;;1.83;1.53;;;8.00;1.00;;;;;;5054445;28;20203;-82
2023/12/31 12:16:22;;;;;;;2.00;1.70;;;8.00;1.00;;;;;;5052997;28;20171;-81
2023/12/31 12:19:00;;;;;;;2.47;1.90;;;8.00;99.90;;;;;;5053284;28;20179;-82
2023/12/31 12:21:26;;;;;;;2.23;1.90;;;8.00;99.90;;;;;;5099093;22;20230;-85
2023/12/31 12:23:53;;;;;;;2.10;1.90;;;7.90;99.90;;;;;;5114125;28;20178;-85
2023/12/31 12:26:20;;;;;;;1.90;1.70;;;7.90;99.90;;;;;;5095773;28;20228;-85
2023/12/31 12:28:50;;;;;;;2.40;1.70;;;7.90;47.40;;;;;;5095581;28;20177;-85
2023/12/31 12:31:17;;;;;;;2.43;1.87;;;8.00;1.00;;;;;;5106375;28;20212;-85
2023/12/31 12:33:46;;;;;;;3.13;1.60;;;8.00;1.00;;;;;;5092574;28;20202;-85
2023/12/31 12:36:12;;;;;;;2.10;1.90;;;8.00;1.00;;;;;;5083305;28;20326;-85
2023/12/31 12:38:38;;;;;;;2.13;1.87;;;8.00;99.90;;;;;;5093633;28;20189;-83
2023/12/31 12:41:04;;;;;;;2.93;1.70;;;7.90;1.00;;;;;;5075231;28;20559;-85
2023/12/31 12:43:33;;;;;;;2.20;1.73;;;7.80;1.00;;;;;;5075185;28;20255;-85
2023/12/31 12:46:06;;;;;;;2.07;1.80;;;7.70;1.00;;;;;;5075546;28;20557;-85
2023/12/31 12:48:38;;;;;;;2.67;1.70;;;7.70;1.00;;;;;;5093098;28;20207;-85
2023/12/31 12:51:04;;;;;;;2.40;1.70;;;7.70;1.00;;;;;;5093268;28;20200;-85
2023/12/31 12:53:29;;;;;;;2.17;1.70;;;7.60;1.00;;;;;;5092258;28;20207;-85
2023/12/31 12:55:55;;;;;;;2.10;1.80;;;7.60;1.00;;;;;;5092661;28;20172;-85
2023/12/31 12:58:22;;;;;;;2.60;1.60;;;7.50;1.00;;;;;;5092823;28;20168;-85